Terminal Aerodrome Forecast
Issued by NWS Pittsburgh, PA

Current Version | Previous Version | Text Only | Print | Product List | Glossary On
Versions: 1 2 3 4 5 6 7 8 9 10 11 12 13 14 15 16 17 18 19 20 21 22 23 24 25 26 27 28 29
000
FTUS41 KPBZ 121004 AAB
TAFPIT
TAF AMD
KPIT 121004Z 1210/1312 26012G20KT P6SM OVC025
     FM121200 26011G22KT 5SM -SN OVC010
     FM121700 28014G27KT P6SM OVC025
     FM130100 30015G28KT 2SM -SN OVC010
     FM130800 29012G20KT P6SM BKN015=

USA.gov is the U.S. government's official web portal to all federal, state and local government web resources and services.